Time;durP1;ratioP1;P1;durP2;ratioP2;P2;SDS_P1;SDS_P2;PMS_P1;PMS_P2;Temp;Humidity;BMP_temperature;BMP_pressure;BME280_temperature;BME280_humidity;BME280_pressure;Samples;Min_cycle;Max_cycle;Signal;HPM_P1;HPM_P2
2022/10/30 00:00:23;;;;;;;16.53;5.17;;;;;;;12.14;100.00;97184.13;5081270;28;20603;-60
2022/10/30 00:02:49;;;;;;;9.03;4.80;;;;;;;12.12;100.00;97183.41;5081063;28;20305;-60
2022/10/30 00:05:17;;;;;;;9.27;4.60;;;;;;;12.14;100.00;97184.97;5084273;28;20309;-60
2022/10/30 00:07:44;;;;;;;6.33;4.57;;;;;;;12.13;100.00;97190.41;5085324;28;20271;-59
2022/10/30 00:10:10;;;;;;;8.47;4.80;;;;;;;12.08;100.00;97184.69;5084764;28;20230;-59
2022/10/30 00:12:38;;;;;;;10.83;4.90;;;;;;;12.05;100.00;97183.13;5085378;28;20198;-60
2022/10/30 00:15:05;;;;;;;9.80;4.83;;;;;;;12.04;100.00;97178.00;5085180;28;20200;-60
2022/10/30 00:17:33;;;;;;;11.13;4.80;;;;;;;12.02;100.00;97174.63;5086465;28;20300;-61
2022/10/30 00:20:00;;;;;;;13.43;4.70;;;;;;;12.03;100.00;97174.50;5094698;28;20285;-60
2022/10/30 00:22:27;;;;;;;9.60;4.77;;;;;;;12.04;100.00;97180.63;5094059;28;20726;-61
2022/10/30 00:24:53;;;;;;;8.53;4.73;;;;;;;12.00;100.00;97176.59;5090980;28;20264;-60
2022/10/30 00:27:20;;;;;;;11.33;5.03;;;;;;;12.01;100.00;97178.28;5085053;28;20193;-60
2022/10/30 00:29:48;;;;;;;10.80;4.90;;;;;;;12.01;100.00;97188.88;5085138;28;20233;-59
2022/10/30 00:32:14;;;;;;;15.00;5.57;;;;;;;11.97;100.00;97185.66;5085148;28;20227;-60
2022/10/30 00:34:41;;;;;;;9.63;5.00;;;;;;;12.00;100.00;97187.19;5085755;28;20191;-60
2022/10/30 00:37:08;;;;;;;12.20;4.97;;;;;;;12.02;100.00;97185.22;5086057;28;20266;-59
2022/10/30 00:39:34;;;;;;;8.63;5.00;;;;;;;12.09;100.00;97181.03;5086953;28;20226;-60
2022/10/30 00:42:01;;;;;;;13.33;5.07;;;;;;;12.09;100.00;97181.03;5086417;28;20212;-61
2022/10/30 00:44:38;;;;;;;9.97;4.73;;;;;;;12.06;100.00;97176.03;5085995;28;20295;-61
2022/10/30 00:47:11;;;;;;;10.87;4.87;;;;;;;12.06;100.00;97170.72;5086140;28;20289;-61
2022/10/30 00:49:41;;;;;;;13.00;5.47;;;;;;;12.06;100.00;97170.72;5085904;28;20281;-60
2022/10/30 00:52:09;;;;;;;9.57;5.47;;;;;;;12.05;100.00;97161.09;5085346;28;20293;-60
2022/10/30 00:54:36;;;;;;;6.17;4.97;;;;;;;12.02;100.00;97162.22;5084842;28;20620;-61
2022/10/30 00:57:05;;;;;;;9.70;5.70;;;;;;;11.98;100.00;97159.00;5085720;28;20217;-60
2022/10/30 00:59:33;;;;;;;11.23;5.00;;;;;;;12.00;100.00;97158.88;5097402;28;20204;-60
2022/10/30 01:02:01;;;;;;;12.63;5.23;;;;;;;12.00;100.00;97155.38;5105963;28;20217;-61
2022/10/30 01:04:29;;;;;;;9.17;4.83;;;;;;;12.01;100.00;97157.88;5084068;28;20216;-60
2022/10/30 01:06:56;;;;;;;12.40;5.10;;;;;;;12.02;100.00;97153.41;5084396;28;20309;-60
2022/10/30 01:09:23;;;;;;;9.60;4.70;;;;;;;12.02;100.00;97148.09;5097528;28;20214;-61
2022/10/30 01:11:49;;;;;;;8.63;4.93;;;;;;;11.97;100.00;97141.41;5107405;28;20220;-61
2022/10/30 01:14:18;;;;;;;12.17;4.83;;;;;;;11.95;100.00;97140.72;5089785;28;20281;-61
2022/10/30 01:16:57;;;;;;;7.17;4.87;;;;;;;11.91;100.00;97151.72;5082882;28;20285;-60
2022/10/30 01:19:29;;;;;;;10.90;4.40;;;;;;;11.89;100.00;97146.59;5084143;28;20289;-61
2022/10/30 01:22:07;;;;;;;10.07;4.50;;;;;;;11.89;100.00;97148.41;5083923;28;20289;-61
2022/10/30 01:24:46;;;;;;;11.70;4.43;;;;;;;11.81;100.00;97151.75;5084067;28;20193;-60
2022/10/30 01:27:27;;;;;;;12.03;4.47;;;;;;;11.80;100.00;97143.91;5084177;28;20207;-60
2022/10/30 01:29:57;;;;;;;10.10;5.50;;;;;;;11.80;100.00;97134.16;5091895;28;20267;-61
2022/10/30 01:32:36;;;;;;;15.80;4.40;;;;;;;11.76;100.00;97139.91;5094795;28;20557;-60
2022/10/30 01:35:08;;;;;;;11.37;4.50;;;;;;;11.82;100.00;97142.81;5088159;28;20222;-60
2022/10/30 01:37:39;;;;;;;10.67;4.37;;;;;;;11.74;100.00;97145.31;5084716;28;20690;-60
2022/10/30 01:40:09;;;;;;;10.73;4.87;;;;;;;11.71;100.00;97140.28;5084700;28;20293;-59
2022/10/30 01:42:45;;;;;;;7.20;4.60;;;;;;;11.71;100.00;97145.59;5083726;28;20651;-60
2022/10/30 01:45:15;;;;;;;11.47;4.90;;;;;;;11.69;100.00;97136.09;5082929;28;20272;-59
2022/10/30 01:47:51;;;;;;;12.00;4.47;;;;;;;11.66;100.00;97126.59;5083084;28;20289;-60
2022/10/30 01:50:25;;;;;;;8.60;4.53;;;;;;;11.67;100.00;97132.72;5082878;28;20225;-60
2022/10/30 01:52:59;;;;;;;8.07;5.00;;;;;;;11.69;100.00;97126.31;5083182;28;20181;-60
2022/10/30 01:55:33;;;;;;;12.73;5.50;;;;;;;11.73;100.00;97127.72;5083444;28;20282;-60
2022/10/30 01:58:03;;;;;;;13.23;5.17;;;;;;;11.68;100.00;97137.91;5083542;28;20273;-60
2022/10/30 02:00:30;;;;;;;10.60;5.63;;;;;;;11.63;100.00;97131.31;5082693;28;20294;-61
2022/10/30 02:02:57;;;;;;;10.40;4.63;;;;;;;11.62;100.00;97132.31;5083286;28;20226;-60
2022/10/30 02:05:30;;;;;;;7.37;4.30;;;;;;;11.64;100.00;97133.00;5082899;28;20208;-59
2022/10/30 02:07:57;;;;;;;10.77;4.97;;;;;;;11.59;100.00;97125.47;5083233;28;20364;-60
2022/10/30 02:10:23;;;;;;;7.47;5.00;;;;;;;11.58;100.00;97129.09;5082869;28;20281;-60
2022/10/30 02:12:50;;;;;;;8.10;4.60;;;;;;;11.59;100.00;97136.06;5082969;28;20590;-60
2022/10/30 02:15:18;;;;;;;9.03;4.57;;;;;;;11.58;100.00;97128.25;5083162;28;20301;-60
2022/10/30 02:17:44;;;;;;;11.60;4.23;;;;;;;11.52;100.00;97129.63;5082794;28;20635;-60
2022/10/30 02:20:17;;;;;;;12.63;4.53;;;;;;;11.48;100.00;97122.94;5082743;28;20289;-59
2022/10/30 02:22:43;;;;;;;11.20;4.67;;;;;;;11.46;100.00;97120.44;5082613;28;20346;-59
2022/10/30 02:25:10;;;;;;;11.73;5.00;;;;;;;11.45;100.00;97117.91;5082791;28;20230;-61
2022/10/30 02:27:37;;;;;;;8.60;5.00;;;;;;;11.46;100.00;97119.59;5081646;28;20280;-61
2022/10/30 02:30:04;;;;;;;9.47;5.00;;;;;;;11.45;100.00;97128.50;5082231;28;20690;-60
2022/10/30 02:32:30;;;;;;;8.70;4.50;;;;;;;11.52;100.00;97118.19;5082264;28;21378;-60
2022/10/30 02:34:57;;;;;;;10.93;4.70;;;;;;;11.48;100.00;97120.28;5082314;28;20682;-60
2022/10/30 02:37:26;;;;;;;11.80;4.70;;;;;;;11.55;100.00;97118.75;5082150;28;20302;-61
2022/10/30 02:39:52;;;;;;;10.97;5.10;;;;;;;11.52;100.00;97118.19;5082257;28;20199;-60
2022/10/30 02:42:19;;;;;;;8.93;4.50;;;;;;;11.42;100.00;97123.47;5082036;28;20805;-60
2022/10/30 02:44:46;;;;;;;7.50;4.53;;;;;;;11.39;100.00;97113.16;5081681;28;20202;-60
2022/10/30 02:47:12;;;;;;;9.43;4.70;;;;;;;11.41;100.00;97116.50;5081777;28;20218;-60
2022/10/30 02:49:39;;;;;;;15.33;5.10;;;;;;;11.39;100.00;97113.16;5082072;28;21380;-60
2022/10/30 02:52:07;;;;;;;8.63;5.10;;;;;;;11.43;100.00;97109.28;5081354;28;20296;-61
2022/10/30 02:54:36;;;;;;;12.47;4.63;;;;;;;11.44;100.00;97108.31;5081640;28;20297;-61
2022/10/30 02:57:02;;;;;;;13.17;5.20;;;;;;;11.41;100.00;97106.75;5081833;28;20550;-61
2022/10/30 02:59:29;;;;;;;8.07;5.13;;;;;;;11.44;100.00;97108.31;5082028;28;20273;-59
2022/10/30 03:01:56;;;;;;;11.33;4.90;;;;;;;11.41;100.00;97106.75;5081934;28;20281;-60
2022/10/30 03:04:22;;;;;;;7.73;4.73;;;;;;;11.39;100.00;97113.16;5081855;28;20614;-60
2022/10/30 03:06:49;;;;;;;10.93;5.10;;;;;;;11.41;100.00;97109.41;5081828;28;20326;-60
2022/10/30 03:09:16;;;;;;;9.90;5.13;;;;;;;11.41;100.00;97106.75;5081732;28;20202;-60
2022/10/30 03:11:44;;;;;;;7.93;5.10;;;;;;;11.41;100.00;97111.22;5081471;28;20234;-60
2022/10/30 03:14:10;;;;;;;8.57;4.67;;;;;;;11.40;100.00;97110.41;5081583;28;20198;-60
2022/10/30 03:16:38;;;;;;;11.70;5.17;;;;;;;11.37;100.00;97110.63;5081853;28;20284;-61
2022/10/30 03:19:04;;;;;;;9.50;5.23;;;;;;;11.40;100.00;97106.91;5081962;28;20294;-59
2022/10/30 03:21:31;;;;;;;8.57;5.23;;;;;;;11.39;100.00;97102.56;5081567;28;20616;-60
2022/10/30 03:23:58;;;;;;;9.60;5.57;;;;;;;11.37;100.00;97105.34;5080827;28;20626;-60
2022/10/30 03:26:24;;;;;;;10.37;5.30;;;;;;;11.36;100.00;97105.50;5081258;28;20252;-61
2022/10/30 03:28:52;;;;;;;8.03;5.93;;;;;;;11.30;100.00;97108.69;5081410;28;20285;-61
2022/10/30 03:31:19;;;;;;;9.57;5.60;;;;;;;11.27;100.00;97106.31;5081509;28;20198;-60
2022/10/30 03:33:46;;;;;;;11.77;5.70;;;;;;;11.30;100.00;97108.69;5081863;28;20268;-59
2022/10/30 03:36:14;;;;;;;14.87;5.73;;;;;;;11.29;100.00;97107.88;5081401;28;20297;-60
2022/10/30 03:38:41;;;;;;;11.53;5.60;;;;;;;11.25;100.00;97111.75;5080866;28;20514;-60
2022/10/30 03:41:09;;;;;;;12.37;5.70;;;;;;;11.29;100.00;97113.16;5093893;28;20228;-60
2022/10/30 03:43:36;;;;;;;9.70;6.10;;;;;;;11.27;100.00;97106.31;5094893;28;20221;-61
2022/10/30 03:46:06;;;;;;;10.67;5.70;;;;;;;11.18;100.00;97104.47;5102128;28;20207;-60
2022/10/30 03:48:33;;;;;;;7.70;5.17;;;;;;;11.12;100.00;97102.38;5101253;28;20646;-61
2022/10/30 03:51:00;;;;;;;10.00;5.40;;;;;;;11.11;100.00;97114.78;5085390;28;20316;-60
2022/10/30 03:53:27;;;;;;;12.17;5.47;;;;;;;11.10;100.00;97106.97;5085972;28;20194;-60
2022/10/30 03:55:57;;;;;;;11.23;5.70;;;;;;;11.07;100.00;97107.22;5094538;28;20233;-61
2022/10/30 03:58:24;;;;;;;10.33;5.57;;;;;;;11.08;100.00;97111.56;5101271;28;20226;-60
2022/10/30 04:00:51;;;;;;;8.93;5.80;;;;;;;11.08;100.00;97116.84;5088330;28;20221;-60
2022/10/30 04:03:21;;;;;;;15.13;5.43;;;;;;;11.07;100.00;97120.47;5081932;28;20334;-59
2022/10/30 04:05:49;;;;;;;8.07;5.00;;;;;;;11.07;100.00;97123.09;5081534;28;20216;-60
2022/10/30 04:08:17;;;;;;;10.50;5.20;;;;;;;11.01;100.00;97118.38;5080813;28;20275;-61
2022/10/30 04:10:43;;;;;;;8.50;5.03;;;;;;;11.02;100.00;97117.41;5080894;28;20194;-60
2022/10/30 04:13:11;;;;;;;10.17;4.97;;;;;;;10.99;100.00;97129.91;5081598;28;20292;-60
2022/10/30 04:15:38;;;;;;;11.63;5.43;;;;;;;10.96;100.00;97122.25;5099135;28;20201;-60
2022/10/30 04:18:05;;;;;;;11.67;4.73;;;;;;;10.92;100.00;97126.13;5101929;28;20217;-60
2022/10/30 04:20:33;;;;;;;11.47;6.00;;;;;;;10.94;100.00;97118.06;5098643;28;20201;-60
2022/10/30 04:23:01;;;;;;;9.10;5.30;;;;;;;10.96;100.00;97113.47;5101489;28;20201;-60
2022/10/30 04:25:28;;;;;;;7.90;4.70;;;;;;;10.92;100.00;97123.47;5107703;28;20178;-60
2022/10/30 04:27:55;;;;;;;11.30;5.77;;;;;;;10.87;100.00;97124.84;5082317;28;20237;-60
2022/10/30 04:30:23;;;;;;;10.80;5.93;;;;;;;10.85;100.00;97118.84;5080925;28;20210;-61
2022/10/30 04:32:51;;;;;;;10.13;5.57;;;;;;;10.88;100.00;97124.72;5081177;28;20211;-60
2022/10/30 04:35:20;;;;;;;6.93;5.10;;;;;;;10.89;100.00;97125.56;5081280;28;20296;-60
2022/10/30 04:37:53;;;;;;;12.20;5.20;;;;;;;10.88;100.00;97124.72;5080968;28;20284;-60
2022/10/30 04:40:20;;;;;;;7.53;5.33;;;;;;;10.89;100.00;97118.47;5081170;28;20203;-59
2022/10/30 04:42:47;;;;;;;9.33;5.97;;;;;;;10.88;100.00;97129.16;5080688;28;20867;-59
2022/10/30 04:45:14;;;;;;;10.83;5.43;;;;;;;10.89;100.00;97121.09;5088110;28;20258;-61
2022/10/30 04:47:41;;;;;;;11.73;5.47;;;;;;;10.87;100.00;97116.91;5102600;28;20221;-60
2022/10/30 04:50:08;;;;;;;11.00;5.50;;;;;;;10.81;100.00;97112.13;5094432;28;20272;-60
2022/10/30 04:52:35;;;;;;;13.10;5.77;;;;;;;10.82;100.00;97105.88;5089719;28;20241;-61
2022/10/30 04:55:03;;;;;;;8.73;6.33;;;;;;;10.82;100.00;97104.09;5107668;28;20210;-61
2022/10/30 04:57:30;;;;;;;10.83;5.20;;;;;;;10.80;100.00;97105.19;5107788;28;20178;-60
2022/10/30 04:59:57;;;;;;;12.23;5.43;;;;;;;10.77;100.00;97106.28;5091329;28;20277;-60
2022/10/30 05:02:23;;;;;;;9.60;5.30;;;;;;;10.79;100.00;97107.00;5084205;28;20206;-59
2022/10/30 05:04:50;;;;;;;10.03;5.03;;;;;;;10.75;100.00;97102.94;5084277;28;20229;-60
2022/10/30 05:07:17;;;;;;;11.53;5.10;;;;;;;10.75;100.00;97108.22;5083747;28;20326;-60
2022/10/30 05:09:44;;;;;;;10.13;5.33;;;;;;;10.78;100.00;97109.75;5084528;28;20204;-60
2022/10/30 05:12:12;;;;;;;11.67;5.97;;;;;;;10.73;100.00;97107.53;5084363;28;20306;-60
2022/10/30 05:14:38;;;;;;;10.53;5.97;;;;;;;10.74;100.00;97111.84;5083910;28;20226;-60
2022/10/30 05:17:05;;;;;;;6.70;4.60;;;;;;;10.72;100.00;97100.56;5084082;28;20289;-60
2022/10/30 05:19:32;;;;;;;9.97;5.10;;;;;;;10.71;100.00;97098.88;5083798;28;20646;-59
2022/10/30 05:21:58;;;;;;;6.10;4.83;;;;;;;10.73;100.00;97098.75;5084081;28;20285;-59
2022/10/30 05:24:25;;;;;;;10.30;5.83;;;;;;;10.72;100.00;97097.06;5083899;28;20244;-61
2022/10/30 05:26:51;;;;;;;8.53;5.57;;;;;;;10.72;100.00;97097.91;5083383;28;20225;-60
2022/10/30 05:29:19;;;;;;;12.83;5.57;;;;;;;10.74;100.00;97090.69;5083724;28;20285;-60
2022/10/30 05:31:46;;;;;;;10.50;5.57;;;;;;;10.70;100.00;97094.56;5083859;28;20644;-61
2022/10/30 05:34:13;;;;;;;9.57;5.60;;;;;;;10.68;100.00;97091.22;5091988;28;20222;-60
2022/10/30 05:36:39;;;;;;;7.73;5.27;;;;;;;10.66;100.00;97090.53;5095502;28;20237;-60
2022/10/30 05:39:06;;;;;;;6.67;5.23;;;;;;;10.65;100.00;97095.94;5094062;28;20202;-61
2022/10/30 05:41:33;;;;;;;10.70;5.53;;;;;;;10.64;100.00;97097.75;5084411;28;20284;-61
2022/10/30 05:43:59;;;;;;;8.23;5.77;;;;;;;10.63;100.00;97104.00;5083441;28;20252;-60
2022/10/30 05:46:28;;;;;;;11.20;6.03;;;;;;;10.64;100.00;97108.31;5083426;28;20689;-59
2022/10/30 05:48:54;;;;;;;10.07;5.67;;;;;;;10.76;100.00;97109.91;5083277;28;20687;-60
2022/10/30 05:51:21;;;;;;;8.20;5.37;;;;;;;10.81;100.00;97110.34;5083308;28;20316;-61
2022/10/30 05:53:48;;;;;;;10.20;5.17;;;;;;;10.81;100.00;97112.97;5084009;28;20583;-61
2022/10/30 05:56:14;;;;;;;12.20;6.13;;;;;;;10.73;100.00;97109.34;5083109;28;20744;-60
2022/10/30 05:58:41;;;;;;;9.20;5.50;;;;;;;10.72;100.00;97108.50;5083044;28;20207;-60
2022/10/30 06:01:08;;;;;;;13.37;5.87;;;;;;;10.71;100.00;97112.09;5082886;28;20198;-60
2022/10/30 06:03:36;;;;;;;10.13;5.67;;;;;;;10.75;100.00;97105.59;5083116;28;20294;-61
2022/10/30 06:06:02;;;;;;;11.97;6.60;;;;;;;10.75;100.00;97108.22;5083237;28;20294;-60
2022/10/30 06:08:29;;;;;;;7.93;6.00;;;;;;;10.71;100.00;97112.09;5082858;28;20240;-60
2022/10/30 06:10:55;;;;;;;10.57;6.60;;;;;;;10.70;100.00;97107.78;5082257;28;20679;-60
2022/10/30 06:13:22;;;;;;;14.97;7.17;;;;;;;10.70;100.00;97107.78;5082874;28;20288;-60
2022/10/30 06:15:49;;;;;;;14.70;7.43;;;;;;;10.71;100.00;97109.47;5082873;28;20579;-60
2022/10/30 06:18:15;;;;;;;17.67;8.17;;;;;;;10.73;100.00;97110.19;5083201;28;20277;-60
2022/10/30 06:20:43;;;;;;;15.07;8.33;;;;;;;10.72;100.00;97111.16;5082191;28;20285;-60
2022/10/30 06:23:10;;;;;;;18.77;8.47;;;;;;;10.78;100.00;97104.47;5083067;28;20284;-60
2022/10/30 06:25:37;;;;;;;17.13;8.40;;;;;;;10.83;100.00;97099.63;5083308;28;20229;-61
2022/10/30 06:28:04;;;;;;;11.43;8.47;;;;;;;10.82;100.00;97093.50;5082549;28;20640;-60
2022/10/30 06:30:32;;;;;;;14.70;9.00;;;;;;;10.87;100.00;97107.19;5082604;28;20238;-60
2022/10/30 06:32:59;;;;;;;14.07;7.87;;;;;;;10.88;100.00;97108.84;5082743;28;20201;-61
2022/10/30 06:35:26;;;;;;;13.83;8.33;;;;;;;10.91;100.00;97127.09;5082709;28;20237;-60
2022/10/30 06:37:55;;;;;;;17.00;8.20;;;;;;;10.99;100.00;97126.41;5082478;28;20297;-61
2022/10/30 06:40:21;;;;;;;13.17;7.83;;;;;;;11.00;100.00;97128.09;5082675;28;20250;-60
2022/10/30 06:42:49;;;;;;;15.03;8.13;;;;;;;10.96;100.00;97124.88;5082286;28;20610;-60
2022/10/30 06:45:17;;;;;;;14.63;8.50;;;;;;;11.03;100.00;97127.00;5082167;28;20202;-60
2022/10/30 06:47:44;;;;;;;16.50;7.87;;;;;;;11.09;100.00;97121.19;5082596;28;20222;-59
2022/10/30 06:50:12;;;;;;;15.03;7.83;;;;;;;11.10;100.00;97125.47;5064988;28;20722;-60
2022/10/30 06:52:39;;;;;;;11.63;7.40;;;;;;;11.14;100.00;97119.78;5082505;28;20270;-60
2022/10/30 06:55:08;;;;;;;13.83;7.47;;;;;;;11.16;100.00;97122.31;5082636;28;20272;-59
2022/10/30 06:57:35;;;;;;;13.07;7.80;;;;;;;11.15;100.00;97123.28;5082694;28;20280;-60
2022/10/30 07:00:02;;;;;;;13.23;7.90;;;;;;;11.21;100.00;97114.78;5082463;28;20278;-60
2022/10/30 07:02:28;;;;;;;12.23;8.33;;;;;;;11.26;100.00;97123.19;5081770;28;20582;-60
2022/10/30 07:04:55;;;;;;;15.00;9.47;;;;;;;11.33;100.00;97121.66;5081579;28;20210;-61
2022/10/30 07:07:22;;;;;;;12.93;8.67;;;;;;;11.37;100.00;97126.53;5081772;28;20549;-59
2022/10/30 07:09:48;;;;;;;19.43;9.20;;;;;;;11.44;100.00;97129.50;5081312;28;20350;-61
2022/10/30 07:12:16;;;;;;;14.87;9.30;;;;;;;11.44;100.00;97124.19;5081791;28;20229;-60
2022/10/30 07:14:43;;;;;;;12.67;8.53;;;;;;;11.48;100.00;97128.22;5080549;28;20248;-60
2022/10/30 07:17:10;;;;;;;13.43;8.33;;;;;;;11.56;100.00;97131.03;5081601;28;20281;-60
2022/10/30 07:19:36;;;;;;;16.10;8.07;;;;;;;11.63;100.00;97131.31;5081041;28;20292;-59
2022/10/30 07:22:03;;;;;;;12.50;8.67;;;;;;;11.63;100.00;97134.81;5082250;28;20294;-61
2022/10/30 07:24:30;;;;;;;16.87;9.40;;;;;;;11.68;100.00;97145.84;5082985;28;20241;-60
2022/10/30 07:26:56;;;;;;;16.30;9.27;;;;;;;11.72;100.00;97136.69;5085059;28;20294;-60
2022/10/30 07:29:24;;;;;;;15.90;9.70;;;;;;;11.72;100.00;97143.78;5086644;28;20256;-60
2022/10/30 07:31:51;;;;;;;14.10;9.67;;;;;;;11.75;100.00;97138.22;5083702;28;20241;-59
2022/10/30 07:34:18;;;;;;;15.83;9.40;;;;;;;11.72;100.00;97143.78;5086292;28;20202;-60
2022/10/30 07:36:44;;;;;;;14.80;8.97;;;;;;;11.72;100.00;97141.13;5083895;28;20262;-59
2022/10/30 07:39:11;;;;;;;15.23;8.90;;;;;;;11.77;100.00;97139.75;5083390;28;20244;-60
2022/10/30 07:41:37;;;;;;;17.40;9.67;;;;;;;11.83;100.00;97141.00;5088618;28;20229;-59
2022/10/30 07:44:04;;;;;;;15.97;10.17;;;;;;;11.92;100.00;97148.13;5082140;28;20241;-60
2022/10/30 07:46:32;;;;;;;13.80;9.60;;;;;;;11.99;100.00;97143.94;5082910;28;20233;-60
2022/10/30 07:48:59;;;;;;;16.53;10.53;;;;;;;12.02;100.00;97148.09;5082051;28;20230;-60
2022/10/30 07:51:25;;;;;;;13.37;9.73;;;;;;;12.11;100.00;97142.81;5082109;28;20750;-60
2022/10/30 07:53:52;;;;;;;10.90;8.43;;;;;;;12.22;100.00;97144.50;5082733;28;20329;-59
2022/10/30 07:56:19;;;;;;;12.50;8.60;;;;;;;12.24;100.00;97134.56;5083037;28;20238;-59
2022/10/30 07:58:45;;;;;;;13.93;9.13;;;;;;;12.28;100.00;97133.31;5082416;28;20700;-60
2022/10/30 08:01:12;;;;;;;14.27;8.27;;;;;;;12.35;100.00;97137.06;5084912;28;20287;-60
2022/10/30 08:03:40;;;;;;;15.43;10.53;;;;;;;12.38;100.00;97140.28;5084670;28;20245;-61
2022/10/30 08:06:07;;;;;;;15.40;9.13;;;;;;;12.50;100.00;97143.63;5084222;28;20293;-60
2022/10/30 08:08:33;;;;;;;15.33;9.80;;;;;;;12.50;100.00;97138.31;5083737;28;20320;-61
2022/10/30 08:11:00;;;;;;;15.27;10.07;;;;;;;12.63;100.00;97138.00;5082531;28;20603;-61
2022/10/30 08:13:27;;;;;;;14.70;10.10;;;;;;;12.61;100.00;97150.59;5082555;28;20293;-60
2022/10/30 08:15:53;;;;;;;16.27;10.43;;;;;;;12.56;100.00;97145.69;5082256;28;21503;-60
2022/10/30 08:18:20;;;;;;;11.90;9.03;;;;;;;12.58;100.00;97146.38;5064268;28;21333;-60
2022/10/30 08:20:50;;;;;;;13.97;9.57;;;;;;;12.56;100.00;97153.66;5083542;28;20241;-60
2022/10/30 08:23:18;;;;;;;10.23;8.77;;;;;;;12.56;100.00;97153.66;5082291;28;20206;-60
2022/10/30 08:25:45;;;;;;;11.83;9.57;;;;;;;12.52;100.00;97146.13;5083384;28;20223;-60
2022/10/30 08:28:14;;;;;;;11.70;8.73;;;;;;;12.63;100.00;97151.25;5086741;28;20221;-61
2022/10/30 08:30:41;;;;;;;10.97;8.17;;;;;;;12.65;100.00;97144.81;5085715;28;20669;-59
2022/10/30 08:33:10;;;;;;;13.03;9.33;;;;;;;12.62;100.00;97137.16;5085940;28;20230;-60
2022/10/30 08:35:37;;;;;;;13.23;10.13;;;;;;;12.67;100.00;97145.53;5087036;28;20206;-60
2022/10/30 08:38:05;;;;;;;12.03;10.13;;;;;;;12.80;100.00;97140.75;5088820;28;20222;-61
2022/10/30 08:40:32;;;;;;;12.53;10.60;;;;;;;12.89;100.00;97144.34;5090200;28;20233;-60
2022/10/30 08:42:59;;;;;;;13.07;10.10;;;;;;;12.89;100.00;97145.16;5092915;28;20208;-60
2022/10/30 08:45:25;;;;;;;10.80;9.63;;;;;;;12.93;100.00;97135.13;5088268;28;20296;-61
2022/10/30 08:47:56;;;;;;;12.17;9.07;;;;;;;13.05;100.00;97143.72;5091130;28;20218;-61
2022/10/30 08:50:23;;;;;;;10.10;9.10;;;;;;;13.11;100.00;97151.16;5092147;28;20267;-60
2022/10/30 08:52:50;;;;;;;10.40;9.30;;;;;;;13.12;100.00;97151.00;5096606;28;20201;-63
2022/10/30 08:55:18;;;;;;;9.87;8.60;;;;;;;13.17;100.00;97153.22;5095640;28;20222;-63
2022/10/30 08:57:45;;;;;;;11.93;7.73;;;;;;;13.22;100.00;97146.47;5085802;28;20198;-60
2022/10/30 09:00:12;;;;;;;10.30;9.30;;;;;;;13.32;100.00;97146.44;5086868;28;20202;-60
2022/10/30 09:02:39;;;;;;;12.10;8.93;;;;;;;13.42;100.00;97148.06;5087529;28;20292;-60
2022/10/30 09:05:06;;;;;;;10.57;8.30;;;;;;;13.50;100.00;97141.16;5085397;28;20214;-60
2022/10/30 09:07:33;;;;;;;10.50;8.47;;;;;;;13.61;100.00;97143.59;5084587;28;20211;-60
2022/10/30 09:10:00;;;;;;;9.73;7.97;;;;;;;13.72;100.00;97143.38;5085079;28;20213;-61
2022/10/30 09:12:28;;;;;;;9.50;8.10;;;;;;;13.90;100.00;97138.91;5084847;28;20719;-59
2022/10/30 09:14:55;;;;;;;8.90;8.00;;;;;;;14.07;100.00;97140.75;5085280;28;20285;-59
2022/10/30 09:17:21;;;;;;;9.70;8.23;;;;;;;14.28;100.00;97135.09;5084865;28;20244;-59
2022/10/30 09:19:48;;;;;;;8.30;7.50;;;;;;;14.43;100.00;97130.94;5084285;28;20891;-60
2022/10/30 09:22:14;;;;;;;8.37;7.47;;;;;;;14.58;100.00;97131.22;5084185;28;20248;-60
2022/10/30 09:24:41;;;;;;;12.97;8.60;;;;;;;14.71;100.00;97134.28;5084013;28;20226;-60
2022/10/30 09:27:08;;;;;;;8.17;7.37;;;;;;;14.99;100.00;97142.94;5083704;28;20245;-60
2022/10/30 09:29:36;;;;;;;9.67;8.40;;;;;;;15.14;100.00;97133.38;5083607;28;20624;-60
2022/10/30 09:32:03;;;;;;;9.38;7.55;;;;;;;15.22;100.00;97141.41;5083376;28;20308;-59
2022/10/30 09:34:30;;;;;;;10.13;7.72;;;;;;;15.47;100.00;97137.00;5083088;28;20198;-60
2022/10/30 09:36:57;;;;;;;10.07;7.50;;;;;;;15.58;100.00;97137.59;5083068;28;20202;-61
2022/10/30 09:39:24;;;;;;;10.85;8.52;;;;;;;15.82;100.00;97134.97;5083905;28;20302;-61
2022/10/30 09:42:12;;;;;;;11.25;7.95;;;;;;;15.98;100.00;97142.16;5083163;28;20198;-60
2022/10/30 09:44:46;;;;;;;9.85;8.52;;;;;;;16.13;100.00;97137.00;5082903;28;20627;-60
2022/10/30 09:47:22;;;;;;;9.43;7.10;;;;;;;16.31;100.00;97140.38;5083462;28;20300;-60
2022/10/30 09:50:00;;;;;;;10.40;8.27;;;;;;;16.41;100.00;97143.69;5082826;28;20224;-60
2022/10/30 09:52:29;;;;;;;13.10;7.72;;;;;;;16.48;100.00;97142.03;5083137;28;20926;-60
2022/10/30 09:55:19;;;;;;;10.43;8.38;;;;;;;16.58;100.00;97141.91;5082998;28;20209;-59
2022/10/30 09:57:51;;;;;;;11.30;8.70;;;;;;;16.65;100.00;97142.91;5075993;28;20708;-60
2022/10/30 10:00:22;;;;;;;13.13;8.48;;;;;;;16.78;100.00;97138.72;5083516;28;20305;-60
2022/10/30 10:02:56;;;;;;;14.85;9.25;;;;;;;16.92;100.00;97140.69;5097194;28;20205;-60
2022/10/30 10:05:25;;;;;;;11.65;8.73;;;;;;;17.01;100.00;97143.31;5089236;28;20212;-60
2022/10/30 10:07:55;;;;;;;16.17;9.65;;;;;;;17.11;100.00;97141.31;5082665;28;20277;-60
2022/10/30 10:10:36;;;;;;;12.35;8.73;;;;;;;17.17;100.00;97138.78;5088212;28;20613;-60
2022/10/30 10:13:03;;;;;;;13.07;8.60;;;;;;;17.25;100.00;97140.59;5089731;28;20232;-61
2022/10/30 10:15:38;;;;;;;11.90;9.30;;;;;;;17.34;100.00;97136.88;5093007;28;20266;-60
2022/10/30 10:18:11;;;;;;;9.88;8.27;;;;;;;17.29;100.00;97141.91;5084742;28;20190;-59
2022/10/30 10:20:41;;;;;;;10.98;9.02;;;;;;;17.38;100.00;97135.53;5083401;28;20190;-60
2022/10/30 10:23:15;;;;;;;14.13;9.65;;;;;;;17.41;99.82;97140.53;5082988;28;20202;-60
2022/10/30 10:25:49;;;;;;;9.60;8.10;;;;;;;17.62;100.00;97138.13;5082210;28;20201;-60
2022/10/30 10:28:24;;;;;;;12.18;8.63;;;;;;;17.92;100.00;97129.25;5082177;28;20186;-60
2022/10/30 10:30:56;;;;;;;12.68;9.48;;;;;;;18.07;98.17;97132.00;5082937;28;20565;-61
2022/10/30 10:33:38;;;;;;;17.15;10.23;;;;;;;18.18;96.76;97139.63;5082048;28;20293;-60
2022/10/30 10:36:10;;;;;;;18.73;10.38;;;;;;;18.32;94.12;97132.66;5082718;28;20282;-60
2022/10/30 10:38:53;;;;;;;14.55;9.70;;;;;;;18.37;93.46;97136.47;5086269;28;20213;-60
2022/10/30 10:41:28;;;;;;;13.82;9.15;;;;;;;18.41;92.01;97123.56;5086879;28;20199;-60
2022/10/30 10:44:05;;;;;;;13.63;9.27;;;;;;;18.41;92.82;97126.25;5088183;28;20190;-60
2022/10/30 10:46:49;;;;;;;9.48;8.57;;;;;;;18.44;93.35;97117.00;5089823;28;20182;-59
2022/10/30 10:49:30;;;;;;;14.40;10.40;;;;;;;18.28;93.21;97124.16;5082532;28;20292;-60
2022/10/30 10:51:59;;;;;;;14.98;9.68;;;;;;;18.34;93.28;97117.25;5081667;28;20308;-60
2022/10/30 10:54:28;;;;;;;15.07;10.18;;;;;;;18.23;92.37;97123.88;5082477;28;20297;-60
2022/10/30 10:56:55;;;;;;;13.50;9.35;;;;;;;18.27;93.34;97113.63;5081645;28;20234;-60
2022/10/30 10:59:27;;;;;;;14.77;10.02;;;;;;;18.25;94.26;97112.97;5100190;28;20198;-61
2022/10/30 11:01:59;;;;;;;13.75;9.43;;;;;;;18.26;96.17;97106.59;5096490;28;20191;-60
2022/10/30 11:04:30;;;;;;;12.60;10.23;;;;;;;18.20;94.23;97105.50;5089188;28;20186;-60
2022/10/30 11:06:58;;;;;;;19.58;10.38;;;;;;;18.24;95.24;97106.81;5082728;28;20230;-60
2022/10/30 11:09:27;;;;;;;10.95;9.45;;;;;;;18.23;95.98;97104.28;5082933;28;20214;-59
2022/10/30 11:11:55;;;;;;;12.27;9.57;;;;;;;18.31;96.46;97104.22;5086321;28;20197;-60
2022/10/30 11:14:23;;;;;;;11.60;8.68;;;;;;;18.36;96.39;97091.13;5086833;28;20512;-60
2022/10/30 11:17:02;;;;;;;13.07;9.68;;;;;;;18.42;97.61;97103.81;5085720;28;20656;-60
2022/10/30 11:19:31;;;;;;;13.02;9.75;;;;;;;18.40;97.54;97090.59;5082301;28;20182;-60
2022/10/30 11:21:58;;;;;;;13.80;9.20;;;;;;;18.44;97.63;97088.38;5081763;28;20210;-60
2022/10/30 11:24:30;;;;;;;13.25;9.77;;;;;;;18.36;94.56;97088.44;5081708;28;20220;-60